createdAt,value
2022-09-13T00:01:09.802Z,17.50
2022-09-13T00:03:36.755Z,17.50
2022-09-13T00:06:15.891Z,17.60
2022-09-13T00:08:42.967Z,17.60
2022-09-13T00:11:17.571Z,17.60
2022-09-13T00:13:44.751Z,17.60
2022-09-13T00:16:13.616Z,17.60
2022-09-13T00:18:41.856Z,17.60
2022-09-13T00:21:11.907Z,17.60
2022-09-13T00:23:39.025Z,17.60
2022-09-13T00:26:09.017Z,17.50
2022-09-13T00:28:36.510Z,17.50
2022-09-13T00:31:05.289Z,17.50
2022-09-13T00:33:33.033Z,17.60
2022-09-13T00:36:07.738Z,17.60
2022-09-13T00:38:39.209Z,17.60
2022-09-13T00:41:08.316Z,17.60
2022-09-13T00:43:41.140Z,17.60
2022-09-13T00:46:08.473Z,17.50
2022-09-13T00:48:37.464Z,17.40
2022-09-13T00:51:07.311Z,17.40
2022-09-13T00:53:39.090Z,17.40
2022-09-13T00:56:20.068Z,17.30
2022-09-13T00:58:55.627Z,17.40
2022-09-13T01:01:29.007Z,17.40
2022-09-13T01:03:55.850Z,17.40
2022-09-13T01:06:29.478Z,17.30
2022-09-13T01:08:59.048Z,17.30
2022-09-13T01:11:34.402Z,17.30
2022-09-13T01:14:01.709Z,17.30
2022-09-13T01:16:28.657Z,17.30
2022-09-13T01:18:55.475Z,17.30
2022-09-13T01:22:06.925Z,17.30
2022-09-13T01:24:45.722Z,17.30
2022-09-13T01:27:37.343Z,17.40
2022-09-13T01:30:18.461Z,17.40
2022-09-13T01:33:01.812Z,17.40
2022-09-13T01:35:46.847Z,17.50
2022-09-13T01:38:33.703Z,17.50
2022-09-13T01:41:20.081Z,17.40
2022-09-13T01:44:16.807Z,17.40
2022-09-13T01:46:52.307Z,17.30
2022-09-13T01:49:34.262Z,17.20
2022-09-13T01:52:24.539Z,17.20
2022-09-13T01:55:03.200Z,17.20
2022-09-13T01:57:41.692Z,17.20
2022-09-13T02:00:13.540Z,17.20
2022-09-13T02:02:59.757Z,17.20
2022-09-13T02:05:32.772Z,17.20
2022-09-13T02:08:13.386Z,17.20
2022-09-13T02:10:53.937Z,17.20
2022-09-13T02:13:26.865Z,17.30
2022-09-13T02:15:59.815Z,17.30
2022-09-13T02:18:37.302Z,17.20
2022-09-13T02:21:32.787Z,17.10
2022-09-13T02:24:11.103Z,17.00
2022-09-13T02:26:40.465Z,16.90
2022-09-13T02:29:12.742Z,16.80
2022-09-13T02:31:51.778Z,16.80
2022-09-13T02:34:35.781Z,16.70
2022-09-13T02:37:04.679Z,16.70
2022-09-13T02:39:34.965Z,16.60
2022-09-13T02:42:12.769Z,16.60
2022-09-13T02:44:45.119Z,16.50
2022-09-13T02:47:33.746Z,16.40
2022-09-13T02:50:28.379Z,16.40
2022-09-13T02:53:20.103Z,16.20
2022-09-13T02:56:22.039Z,16.10
2022-09-13T02:59:04.775Z,15.90
2022-09-13T03:01:33.378Z,15.90
2022-09-13T03:04:00.404Z,15.80
2022-09-13T03:06:29.268Z,15.70
2022-09-13T03:08:59.659Z,15.70
2022-09-13T03:11:32.369Z,15.60
2022-09-13T03:14:27.195Z,15.50
2022-09-13T03:16:54.239Z,15.40
2022-09-13T03:19:27.206Z,15.30
2022-09-13T03:22:18.794Z,15.30
2022-09-13T03:25:04.283Z,15.40
2022-09-13T03:27:45.523Z,15.30
2022-09-13T03:30:14.246Z,15.30
2022-09-13T03:33:09.817Z,15.30
2022-09-13T03:35:59.685Z,15.30
2022-09-13T03:38:35.703Z,15.40
2022-09-13T03:41:07.811Z,15.30
2022-09-13T03:43:48.651Z,15.30
2022-09-13T03:46:21.815Z,15.30
2022-09-13T03:48:50.432Z,15.30
2022-09-13T03:51:17.401Z,15.30
2022-09-13T03:53:52.524Z,15.30
2022-09-13T03:56:20.751Z,15.20
2022-09-13T03:58:48.897Z,15.30
2022-09-13T04:01:20.859Z,15.20
2022-09-13T04:03:47.810Z,15.20
2022-09-13T04:06:14.657Z,15.30
2022-09-13T04:08:41.955Z,15.30
2022-09-13T04:11:09.603Z,15.40
2022-09-13T04:13:37.253Z,15.50
2022-09-13T04:16:06.323Z,15.50
2022-09-13T04:18:33.719Z,15.50
2022-09-13T04:21:02.113Z,15.60
2022-09-13T04:23:31.202Z,15.60
2022-09-13T04:26:05.093Z,15.70
2022-09-13T04:28:31.955Z,15.80
2022-09-13T04:30:58.778Z,15.90
2022-09-13T04:33:25.918Z,16.00
2022-09-13T04:35:59.072Z,16.00
2022-09-13T04:38:26.483Z,16.10
2022-09-13T04:40:56.511Z,16.20
2022-09-13T04:43:24.281Z,16.30
2022-09-13T04:45:51.568Z,16.40
2022-09-13T04:48:18.504Z,16.40
2022-09-13T04:50:45.357Z,16.50
2022-09-13T04:53:12.328Z,16.50
2022-09-13T04:55:39.370Z,16.60
2022-09-13T04:58:06.275Z,16.70
2022-09-13T05:00:34.347Z,16.80
2022-09-13T05:03:01.598Z,16.90
2022-09-13T05:05:32.508Z,16.90
2022-09-13T05:07:59.327Z,16.90
2022-09-13T05:10:26.161Z,16.90
2022-09-13T05:12:53.269Z,16.90
2022-09-13T05:15:20.102Z,16.90
2022-09-13T05:17:46.878Z,16.90
2022-09-13T05:20:13.656Z,16.90
2022-09-13T05:22:40.439Z,16.90
2022-09-13T05:25:08.007Z,16.90
2022-09-13T05:27:34.848Z,16.90
2022-09-13T05:30:01.658Z,17.00
2022-09-13T05:32:28.438Z,17.10
2022-09-13T05:34:55.205Z,17.10
2022-09-13T05:37:22.006Z,17.10
2022-09-13T05:40:10.253Z,17.20
2022-09-13T05:42:35.663Z,17.20
2022-09-13T05:45:02.563Z,17.20
2022-09-13T05:47:29.381Z,17.30
2022-09-13T05:50:09.987Z,17.40
2022-09-13T05:52:37.841Z,17.40
2022-09-13T05:55:04.932Z,17.40
2022-09-13T05:57:31.977Z,17.40
2022-09-13T05:59:58.831Z,17.50
2022-09-13T06:02:25.771Z,17.50
2022-09-13T06:04:52.681Z,17.60
2022-09-13T06:07:19.534Z,17.60
2022-09-13T06:09:46.318Z,17.70
2022-09-13T06:12:13.081Z,17.70
2022-09-13T06:14:40.048Z,17.70
2022-09-13T06:17:06.935Z,17.70
2022-09-13T06:19:33.731Z,17.80
2022-09-13T06:22:00.531Z,17.80
2022-09-13T06:24:27.371Z,17.90
2022-09-13T06:26:54.317Z,18.00
2022-09-13T06:29:21.127Z,18.00
2022-09-13T06:31:47.912Z,18.10
2022-09-13T06:34:16.165Z,18.20
2022-09-13T06:36:43.215Z,18.30
2022-09-13T06:39:10.162Z,18.40
2022-09-13T06:41:37.864Z,18.40
2022-09-13T06:44:05.201Z,18.50
2022-09-13T06:46:34.790Z,18.50
2022-09-13T06:49:04.139Z,18.50
2022-09-13T06:51:32.649Z,18.60
2022-09-13T06:54:00.208Z,18.70
2022-09-13T06:56:34.860Z,18.70
2022-09-13T06:59:05.134Z,18.80
2022-09-13T07:01:33.454Z,18.80
2022-09-13T07:04:01.698Z,18.90
2022-09-13T07:06:31.697Z,18.80
2022-09-13T07:09:00.378Z,18.70
2022-09-13T07:11:32.222Z,18.70
2022-09-13T07:13:59.861Z,18.80
2022-09-13T07:16:29.026Z,18.90
2022-09-13T07:18:58.771Z,19.10
2022-09-13T07:21:27.051Z,19.20
2022-09-13T07:23:55.296Z,19.20
2022-09-13T07:26:22.777Z,19.10
2022-09-13T07:28:52.847Z,19.00
2022-09-13T07:31:25.224Z,18.90
2022-09-13T07:33:57.454Z,18.90
2022-09-13T07:36:25.702Z,18.90
2022-09-13T07:38:53.052Z,18.80
2022-09-13T07:41:24.205Z,18.60
2022-09-13T07:43:51.987Z,18.60
2022-09-13T07:46:21.771Z,18.60
2022-09-13T07:48:49.754Z,18.70
2022-09-13T07:51:22.322Z,18.70
2022-09-13T07:53:53.749Z,18.80
2022-09-13T07:56:27.261Z,19.00
2022-09-13T07:58:57.923Z,19.10
2022-09-13T08:01:30.161Z,19.30
2022-09-13T08:03:59.342Z,19.40
2022-09-13T08:06:28.605Z,19.40
2022-09-13T08:08:56.043Z,19.50
2022-09-13T08:11:23.979Z,19.60
2022-09-13T08:13:52.481Z,19.60
2022-09-13T08:16:21.204Z,19.80
2022-09-13T08:18:53.950Z,19.70
2022-09-13T08:21:21.921Z,19.70
2022-09-13T08:23:49.586Z,19.80
2022-09-13T08:26:17.385Z,19.90
2022-09-13T08:28:44.384Z,19.90
2022-09-13T08:31:17.009Z,19.90
2022-09-13T08:33:46.643Z,19.80
2022-09-13T08:36:14.721Z,19.70
2022-09-13T08:38:49.434Z,19.80
2022-09-13T08:41:49.417Z,19.80
2022-09-13T08:44:31.104Z,19.70
2022-09-13T08:47:03.463Z,19.90
2022-09-13T08:49:41.512Z,20.00
2022-09-13T08:52:29.678Z,20.00
2022-09-13T08:54:58.622Z,20.00
2022-09-13T08:57:41.049Z,20.10
2022-09-13T09:00:40.990Z,20.10
2022-09-13T09:03:33.346Z,20.00
2022-09-13T09:06:00.160Z,20.00
2022-09-13T09:08:41.851Z,19.90
2022-09-13T09:11:38.155Z,19.90
2022-09-13T09:14:04.996Z,19.80
2022-09-13T09:16:55.154Z,19.90
2022-09-13T09:19:34.402Z,19.90
2022-09-13T09:22:05.701Z,19.80
2022-09-13T09:24:37.255Z,19.90
2022-09-13T09:27:18.993Z,20.10
2022-09-13T09:29:49.195Z,20.10
2022-09-13T09:32:28.010Z,20.20
2022-09-13T09:35:13.034Z,20.20
2022-09-13T09:37:42.355Z,20.40
2022-09-13T09:40:14.337Z,20.50
2022-09-13T09:42:43.596Z,20.50
2022-09-13T09:45:34.700Z,20.50
2022-09-13T09:48:09.351Z,20.50
2022-09-13T09:50:41.701Z,20.50
2022-09-13T09:53:14.827Z,20.50
2022-09-13T09:55:52.099Z,20.40
2022-09-13T09:58:36.161Z,20.30
2022-09-13T10:01:04.009Z,20.20
2022-09-13T10:03:33.892Z,20.10
2022-09-13T10:06:14.541Z,20.10
2022-09-13T10:08:43.326Z,20.10
2022-09-13T10:11:10.845Z,20.00
2022-09-13T10:13:38.816Z,20.10
2022-09-13T10:16:21.997Z,20.10
2022-09-13T10:18:48.886Z,20.20
2022-09-13T10:21:19.010Z,20.30
2022-09-13T10:23:48.366Z,20.50
2022-09-13T10:26:24.310Z,20.50
2022-09-13T10:29:07.360Z,20.60
2022-09-13T10:31:38.139Z,20.50
2022-09-13T10:34:20.741Z,20.80
2022-09-13T10:37:04.355Z,20.80
2022-09-13T10:39:35.087Z,21.00
2022-09-13T10:42:10.029Z,21.10
2022-09-13T10:44:52.500Z,21.10
2022-09-13T10:47:23.409Z,20.90
2022-09-13T10:49:55.964Z,20.80
2022-09-13T10:52:31.579Z,20.90
2022-09-13T10:55:20.027Z,20.80
2022-09-13T10:57:48.853Z,20.80
2022-09-13T11:00:43.270Z,20.80
2022-09-13T11:03:34.330Z,20.90
2022-09-13T11:06:13.143Z,20.90
2022-09-13T11:08:52.137Z,20.70
2022-09-13T11:11:37.633Z,20.50
2022-09-13T11:14:22.222Z,20.20
2022-09-13T11:17:01.179Z,20.40
2022-09-13T11:20:07.111Z,20.60
2022-09-13T11:23:13.167Z,20.60
2022-09-13T11:26:12.776Z,20.60
2022-09-13T11:29:14.845Z,20.40
2022-09-13T11:31:53.231Z,20.10
2022-09-13T11:34:32.678Z,20.10
2022-09-13T11:37:29.963Z,20.10
2022-09-13T11:40:32.118Z,20.20
2022-09-13T11:43:35.793Z,20.70
2022-09-13T11:46:27.245Z,21.00
2022-09-13T11:49:12.867Z,21.30
2022-09-13T11:52:17.433Z,21.80
2022-09-13T11:55:14.097Z,21.80
2022-09-13T11:57:52.747Z,21.70
2022-09-13T12:00:21.811Z,21.40
2022-09-13T12:03:28.306Z,21.40
2022-09-13T12:06:01.557Z,21.50
2022-09-13T12:08:54.503Z,21.50
2022-09-13T12:11:34.676Z,21.20
2022-09-13T12:14:15.170Z,21.20
2022-09-13T12:16:46.677Z,21.10
2022-09-13T12:19:22.484Z,20.80
2022-09-13T12:21:51.293Z,20.50
2022-09-13T12:24:29.931Z,20.50
2022-09-13T12:27:05.467Z,20.60
2022-09-13T12:29:49.126Z,20.70
2022-09-13T12:32:17.667Z,20.80
2022-09-13T12:34:59.769Z,21.00
2022-09-13T12:37:49.244Z,21.10
2022-09-13T12:40:23.703Z,21.10
2022-09-13T12:43:00.539Z,21.10
2022-09-13T12:45:33.754Z,21.20
2022-09-13T12:48:29.771Z,21.30
2022-09-13T12:51:09.070Z,21.40
2022-09-13T12:53:54.368Z,21.50
2022-09-13T12:56:29.086Z,21.60
2022-09-13T12:59:35.680Z,21.70
2022-09-13T13:02:38.689Z,21.90
2022-09-13T13:05:30.983Z,21.30
2022-09-13T13:08:18.421Z,21.50
2022-09-13T13:10:59.626Z,21.60
2022-09-13T13:13:52.969Z,21.50
2022-09-13T13:16:31.646Z,21.60
2022-09-13T13:19:00.700Z,21.70
2022-09-13T13:21:40.874Z,21.60
2022-09-13T13:24:16.747Z,21.10
2022-09-13T13:26:43.609Z,21.30
2022-09-13T13:29:18.047Z,21.20
2022-09-13T13:31:47.617Z,21.00
2022-09-13T13:34:14.408Z,20.80
2022-09-13T13:36:41.146Z,20.50
2022-09-13T13:39:33.769Z,20.60
2022-09-13T13:42:25.455Z,20.60
2022-09-13T13:44:52.358Z,20.80
2022-09-13T13:47:19.098Z,21.10
2022-09-13T13:49:50.673Z,21.50
2022-09-13T13:52:23.067Z,21.90
2022-09-13T13:54:57.426Z,22.20
2022-09-13T13:57:29.302Z,22.60
2022-09-13T14:00:13.923Z,22.80
2022-09-13T14:02:49.606Z,22.80
2022-09-13T14:05:41.289Z,23.10
2022-09-13T14:08:39.172Z,23.20
2022-09-13T14:11:28.630Z,23.60
2022-09-13T14:14:20.107Z,23.80
2022-09-13T14:17:17.899Z,24.20
2022-09-13T14:19:48.431Z,23.70
2022-09-13T14:22:26.635Z,23.90
2022-09-13T14:24:59.272Z,24.00
2022-09-13T14:27:33.999Z,23.50
2022-09-13T14:30:04.578Z,23.00
2022-09-13T14:32:42.766Z,22.90
2022-09-13T14:35:39.446Z,22.90
2022-09-13T14:38:25.323Z,22.60
2022-09-13T14:40:57.905Z,22.30
2022-09-13T14:43:26.743Z,21.80
2022-09-13T14:46:12.748Z,21.90
2022-09-13T14:48:54.388Z,21.90
2022-09-13T14:51:28.060Z,22.10
2022-09-13T14:54:04.387Z,22.30
2022-09-13T14:56:53.031Z,22.40
2022-09-13T14:59:45.976Z,22.80
2022-09-13T15:02:27.333Z,23.10
2022-09-13T15:04:59.372Z,23.40
2022-09-13T15:07:29.171Z,23.70
2022-09-13T15:09:58.659Z,23.80
2022-09-13T15:12:28.277Z,23.90
2022-09-13T15:15:19.945Z,23.60
2022-09-13T15:18:08.899Z,23.50
2022-09-13T15:20:47.822Z,23.20
2022-09-13T15:23:26.827Z,23.20
2022-09-13T15:26:04.431Z,23.50
2022-09-13T15:28:48.701Z,23.50
2022-09-13T15:31:25.289Z,24.20
2022-09-13T15:34:31.051Z,24.50
2022-09-13T15:37:23.262Z,24.10
2022-09-13T15:40:02.524Z,24.20
2022-09-13T15:42:29.347Z,23.80
2022-09-13T15:44:56.949Z,23.20
2022-09-13T15:47:23.934Z,22.90
2022-09-13T15:49:52.155Z,23.00
2022-09-13T15:52:20.240Z,23.30
2022-09-13T15:54:49.437Z,23.30
2022-09-13T15:57:24.207Z,23.20
2022-09-13T15:59:51.678Z,23.30
2022-09-13T16:02:32.018Z,23.30
2022-09-13T16:04:59.192Z,22.70
2022-09-13T16:07:27.295Z,22.60
2022-09-13T16:09:55.778Z,22.70
2022-09-13T16:12:24.661Z,22.70
2022-09-13T16:14:51.866Z,22.70
2022-09-13T16:17:21.451Z,22.70
2022-09-13T16:19:48.508Z,22.50
2022-09-13T16:22:15.438Z,22.10
2022-09-13T16:24:42.373Z,21.70
2022-09-13T16:27:14.150Z,21.20
2022-09-13T16:29:41.476Z,20.90
2022-09-13T16:32:08.320Z,20.80
2022-09-13T16:34:35.159Z,20.60
2022-09-13T16:37:02.066Z,20.50
2022-09-13T16:39:29.405Z,20.40
2022-09-13T16:41:56.178Z,20.60
2022-09-13T16:44:23.118Z,20.70
2022-09-13T16:46:50.002Z,20.70
2022-09-13T16:49:17.271Z,20.60
2022-09-13T16:51:44.085Z,20.60
2022-09-13T16:54:10.997Z,20.60
2022-09-13T16:56:37.835Z,20.50
2022-09-13T16:59:04.697Z,20.40
2022-09-13T17:01:31.667Z,20.30
2022-09-13T17:03:58.990Z,20.20
2022-09-13T17:06:27.119Z,20.20
2022-09-13T17:09:03.006Z,20.10
2022-09-13T17:11:32.787Z,20.00
2022-09-13T17:14:01.252Z,19.90
2022-09-13T17:16:34.478Z,19.70
2022-09-13T17:19:04.946Z,19.60
2022-09-13T17:21:33.807Z,19.40
2022-09-13T17:24:01.574Z,19.20
2022-09-13T17:26:28.894Z,19.00
2022-09-13T17:28:55.878Z,18.80
2022-09-13T17:31:22.824Z,18.60
2022-09-13T17:33:50.062Z,18.50
2022-09-13T17:36:17.339Z,18.30
2022-09-13T17:38:44.447Z,18.10
2022-09-13T17:41:13.873Z,17.90
2022-09-13T17:43:42.807Z,17.70
2022-09-13T17:46:24.061Z,17.50
2022-09-13T17:48:52.500Z,17.30
2022-09-13T17:51:22.505Z,17.10
2022-09-13T17:53:52.555Z,17.00
2022-09-13T17:56:21.773Z,16.90
2022-09-13T17:58:48.726Z,16.80
2022-09-13T18:01:16.155Z,16.60
2022-09-13T18:03:43.697Z,16.40
2022-09-13T18:06:11.987Z,16.30
2022-09-13T18:08:39.478Z,16.20
2022-09-13T18:11:19.454Z,16.10
2022-09-13T18:13:49.249Z,16.00
2022-09-13T18:16:21.535Z,15.90
2022-09-13T18:18:50.210Z,15.80
2022-09-13T18:21:21.202Z,15.80
2022-09-13T18:23:50.043Z,15.70
2022-09-13T18:26:20.374Z,15.60
2022-09-13T18:28:49.078Z,15.50
2022-09-13T18:31:17.971Z,15.50
2022-09-13T18:33:45.608Z,15.40
2022-09-13T18:36:17.694Z,15.30
2022-09-13T18:38:47.227Z,15.20
2022-09-13T18:41:17.146Z,15.10
2022-09-13T18:43:46.138Z,15.00
2022-09-13T18:46:15.610Z,15.00
2022-09-13T18:48:47.727Z,14.90
2022-09-13T18:51:17.317Z,14.80
2022-09-13T18:53:45.441Z,14.70
2022-09-13T18:56:14.590Z,14.70
2022-09-13T18:58:42.617Z,14.60
2022-09-13T19:01:24.334Z,14.60
2022-09-13T19:04:00.479Z,14.50
2022-09-13T19:06:32.530Z,14.40
2022-09-13T19:09:00.587Z,14.30
2022-09-13T19:11:49.778Z,14.30
2022-09-13T19:14:23.197Z,14.50
2022-09-13T19:16:51.436Z,14.70
2022-09-13T19:19:19.036Z,14.90
2022-09-13T19:21:46.288Z,14.90
2022-09-13T19:24:18.803Z,15.00
2022-09-13T19:26:47.331Z,15.00
2022-09-13T19:29:16.669Z,15.00
2022-09-13T19:31:48.900Z,15.20
2022-09-13T19:34:17.660Z,15.20
2022-09-13T19:36:45.531Z,15.20
2022-09-13T19:39:13.252Z,15.20
2022-09-13T19:41:40.945Z,15.20
2022-09-13T19:44:08.929Z,15.20
2022-09-13T19:46:38.327Z,15.30
2022-09-13T19:49:06.274Z,15.20
2022-09-13T19:51:36.035Z,15.20
2022-09-13T19:54:03.942Z,15.20
2022-09-13T19:56:33.501Z,15.20
2022-09-13T19:59:01.850Z,15.20
2022-09-13T20:01:31.606Z,15.20
2022-09-13T20:04:01.136Z,15.20
2022-09-13T20:06:30.270Z,15.20
2022-09-13T20:09:01.541Z,15.10
2022-09-13T20:11:29.179Z,15.10
2022-09-13T20:13:59.252Z,15.00
2022-09-13T20:16:29.881Z,15.00
2022-09-13T20:18:57.501Z,15.00
2022-09-13T20:21:25.902Z,15.00
2022-09-13T20:24:02.382Z,14.90
2022-09-13T20:26:31.025Z,14.80
2022-09-13T20:29:00.432Z,14.80
2022-09-13T20:31:28.303Z,14.80
2022-09-13T20:34:00.038Z,14.70
2022-09-13T20:36:28.637Z,14.70
2022-09-13T20:39:02.325Z,14.70
2022-09-13T20:41:31.242Z,14.60
2022-09-13T20:44:02.394Z,14.60
2022-09-13T20:46:31.582Z,14.60
2022-09-13T20:48:58.846Z,14.60
2022-09-13T20:51:27.610Z,14.50
2022-09-13T20:54:00.525Z,14.50
2022-09-13T20:56:29.190Z,14.40
2022-09-13T20:59:00.437Z,14.40
2022-09-13T21:01:30.286Z,14.30
2022-09-13T21:03:59.888Z,14.30
2022-09-13T21:06:30.524Z,14.20
2022-09-13T21:09:00.101Z,14.10
2022-09-13T21:11:35.644Z,14.00
2022-09-13T21:14:04.885Z,14.10
2022-09-13T21:16:35.984Z,14.10
2022-09-13T21:19:03.816Z,14.10
2022-09-13T21:21:34.544Z,14.10
2022-09-13T21:24:04.370Z,14.00
2022-09-13T21:26:32.269Z,13.90
2022-09-13T21:29:00.194Z,13.80
2022-09-13T21:31:32.826Z,13.70
2022-09-13T21:34:00.764Z,13.70
2022-09-13T21:36:29.230Z,13.60
2022-09-13T21:38:56.924Z,13.50
2022-09-13T21:41:26.313Z,13.40
2022-09-13T21:43:53.304Z,13.30
2022-09-13T21:46:22.157Z,13.20
2022-09-13T21:48:58.457Z,13.10
2022-09-13T21:51:35.426Z,13.00
2022-09-13T21:54:05.584Z,13.00
2022-09-13T21:56:40.894Z,13.00
2022-09-13T21:59:16.941Z,13.00
2022-09-13T22:01:46.787Z,13.00
2022-09-13T22:04:17.610Z,12.90
2022-09-13T22:06:46.193Z,12.90
2022-09-13T22:09:14.556Z,12.90
2022-09-13T22:11:43.752Z,12.80
2022-09-13T22:14:16.591Z,12.80
2022-09-13T22:16:44.726Z,12.70
2022-09-13T22:19:12.968Z,12.80
2022-09-13T22:21:42.915Z,12.80
2022-09-13T22:24:13.550Z,12.80
2022-09-13T22:26:40.875Z,12.80
2022-09-13T22:29:09.761Z,12.90
2022-09-13T22:31:41.922Z,12.90
2022-09-13T22:34:12.618Z,12.90
2022-09-13T22:36:39.611Z,12.90
2022-09-13T22:39:06.391Z,13.00
2022-09-13T22:41:34.338Z,13.00
2022-09-13T22:44:02.444Z,13.00
2022-09-13T22:46:31.251Z,12.90
2022-09-13T22:48:58.114Z,12.90
2022-09-13T22:51:26.101Z,12.90
2022-09-13T22:53:53.973Z,12.80
2022-09-13T22:56:30.435Z,12.80
2022-09-13T22:59:01.641Z,12.80
2022-09-13T23:01:30.022Z,12.80
2022-09-13T23:03:57.535Z,12.80
2022-09-13T23:06:25.579Z,12.80
2022-09-13T23:08:54.730Z,12.70
2022-09-13T23:11:30.536Z,12.70
2022-09-13T23:14:00.347Z,12.70
2022-09-13T23:16:37.755Z,12.70
2022-09-13T23:19:05.305Z,12.60
2022-09-13T23:21:35.948Z,12.60
2022-09-13T23:24:04.740Z,12.60
2022-09-13T23:26:32.074Z,12.60
2022-09-13T23:29:01.026Z,12.50
2022-09-13T23:31:30.890Z,12.40
2022-09-13T23:33:59.858Z,12.30
2022-09-13T23:36:29.350Z,12.40
2022-09-13T23:38:58.000Z,12.40
2022-09-13T23:41:25.976Z,12.40
2022-09-13T23:43:53.893Z,12.40
2022-09-13T23:46:21.368Z,12.40
2022-09-13T23:48:48.877Z,12.30
2022-09-13T23:51:18.551Z,12.30
2022-09-13T23:53:46.387Z,12.30
2022-09-13T23:56:14.064Z,12.30
2022-09-13T23:58:41.294Z,12.30
